createdAt,value
2018-02-18T00:00:52.071Z,29.20
2018-02-18T00:01:56.984Z,29.30
2018-02-18T00:03:01.017Z,29.30
2018-02-18T00:04:05.068Z,29.40
2018-02-18T00:05:09.128Z,29.50
2018-02-18T00:06:13.449Z,29.60
2018-02-18T00:07:17.593Z,29.70
2018-02-18T00:08:21.677Z,29.70
2018-02-18T00:09:25.739Z,29.80
2018-02-18T00:10:30.541Z,29.90
2018-02-18T00:11:34.579Z,29.90
2018-02-18T00:12:39.487Z,30.00
2018-02-18T00:13:43.622Z,29.90
2018-02-18T00:14:50.306Z,30.00
2018-02-18T00:15:55.678Z,30.00
2018-02-18T00:17:00.109Z,29.90
2018-02-18T00:18:04.248Z,30.50
2018-02-18T00:19:08.287Z,30.00
2018-02-18T00:20:13.084Z,29.40
2018-02-18T00:21:17.876Z,29.00
2018-02-18T00:22:22.675Z,29.10
2018-02-18T00:23:26.815Z,29.10
2018-02-18T00:24:35.684Z,29.30
2018-02-18T00:25:39.704Z,29.30
2018-02-18T00:26:43.879Z,29.40
2018-02-18T00:27:47.913Z,29.40
2018-02-18T00:28:52.017Z,29.50
2018-02-18T00:29:56.037Z,29.20
2018-02-18T00:31:00.062Z,29.40
2018-02-18T00:32:04.087Z,29.50
2018-02-18T00:33:08.129Z,29.50
2018-02-18T00:34:13.006Z,29.60
2018-02-18T00:35:17.048Z,29.50
2018-02-18T00:36:22.077Z,29.80
2018-02-18T00:37:26.149Z,29.80
2018-02-18T00:38:30.202Z,29.80
2018-02-18T00:39:34.335Z,29.90
2018-02-18T00:40:38.417Z,30.00
2018-02-18T00:41:42.446Z,29.90
2018-02-18T00:42:46.466Z,30.00
2018-02-18T00:43:50.491Z,30.00
2018-02-18T00:44:54.609Z,30.20
2018-02-18T00:45:58.624Z,30.10
2018-02-18T00:47:14.411Z,30.10
2018-02-18T00:50:04.831Z,30.00
2018-02-18T00:52:41.137Z,30.00
2018-02-18T00:53:45.913Z,30.20
2018-02-18T00:54:52.512Z,30.20
2018-02-18T00:55:56.595Z,30.20
2018-02-18T00:57:00.623Z,30.10
2018-02-18T00:58:04.657Z,30.20
2018-02-18T00:59:08.674Z,30.00
2018-02-18T01:00:13.634Z,30.00
2018-02-18T01:01:17.968Z,30.00
2018-02-18T01:02:21.992Z,30.20
2018-02-18T01:03:26.022Z,29.90
2018-02-18T01:04:30.042Z,29.60
2018-02-18T01:05:34.145Z,29.70
2018-02-18T01:06:38.987Z,27.10
2018-02-18T01:07:43.017Z,27.50
2018-02-18T01:08:47.549Z,26.70
2018-02-18T01:09:52.444Z,27.50
2018-02-18T01:10:56.804Z,27.10
2018-02-18T01:12:00.922Z,27.70
2018-02-18T01:13:05.812Z,27.90
2018-02-18T01:14:09.855Z,27.90
2018-02-18T01:15:13.901Z,28.00
2018-02-18T01:16:18.038Z,28.20
2018-02-18T01:17:22.066Z,28.30
2018-02-18T01:18:27.000Z,28.50
2018-02-18T01:19:31.033Z,28.50
2018-02-18T01:20:35.054Z,28.60
2018-02-18T01:21:39.151Z,28.60
2018-02-18T01:22:43.227Z,28.60
2018-02-18T01:23:47.238Z,28.80
2018-02-18T01:24:52.066Z,28.80
2018-02-18T01:26:16.863Z,28.80
2018-02-18T01:27:24.872Z,28.80
2018-02-18T01:28:28.897Z,28.90
2018-02-18T01:29:32.908Z,29.00
2018-02-18T01:30:36.968Z,29.10
2018-02-18T01:31:41.766Z,29.10
2018-02-18T01:32:45.891Z,29.10
2018-02-18T01:33:49.929Z,29.20
2018-02-18T01:34:53.999Z,29.20
2018-02-18T01:35:58.037Z,29.50
2018-02-18T01:37:02.077Z,29.40
2018-02-18T01:38:06.939Z,29.50
2018-02-18T01:39:10.993Z,29.50
2018-02-18T01:40:15.025Z,29.40
2018-02-18T01:41:19.056Z,29.40
2018-02-18T01:42:23.095Z,29.40
2018-02-18T01:43:27.221Z,29.50
2018-02-18T01:44:32.080Z,29.40
2018-02-18T01:45:36.122Z,29.40
2018-02-18T01:46:40.956Z,29.40
2018-02-18T01:47:45.068Z,29.30
2018-02-18T01:48:49.182Z,29.50
2018-02-18T01:49:53.220Z,29.40
2018-02-18T01:50:57.248Z,29.50
2018-02-18T01:52:01.286Z,29.40
2018-02-18T01:53:05.324Z,29.40
2018-02-18T01:54:09.437Z,29.40
2018-02-18T01:55:14.246Z,29.40
2018-02-18T01:56:18.322Z,29.40
2018-02-18T01:57:22.359Z,29.40
2018-02-18T01:58:26.384Z,29.40
2018-02-18T01:59:30.537Z,29.40
2018-02-18T02:00:34.797Z,29.40
2018-02-18T02:01:39.646Z,29.30
2018-02-18T02:02:43.782Z,29.30
2018-02-18T02:03:48.570Z,29.40
2018-02-18T02:04:52.670Z,29.40
2018-02-18T02:05:56.721Z,29.40
2018-02-18T02:07:01.545Z,29.30
2018-02-18T02:08:05.574Z,29.30
2018-02-18T02:09:09.644Z,29.30
2018-02-18T02:10:13.730Z,29.30
2018-02-18T02:11:17.798Z,29.30
2018-02-18T02:12:22.619Z,29.40
2018-02-18T02:13:26.638Z,29.30
2018-02-18T02:14:30.667Z,29.30
2018-02-18T02:15:34.802Z,29.40
2018-02-18T02:16:39.256Z,29.30
2018-02-18T02:17:43.310Z,29.40
2018-02-18T02:18:48.100Z,29.30
2018-02-18T02:19:52.133Z,29.30
2018-02-18T02:20:56.224Z,29.40
2018-02-18T02:22:01.026Z,29.40
2018-02-18T02:23:05.108Z,29.40
2018-02-18T02:24:09.124Z,29.40
2018-02-18T02:25:13.444Z,29.40
2018-02-18T02:26:18.345Z,29.30
2018-02-18T02:27:22.369Z,29.30
2018-02-18T02:28:26.393Z,29.30
2018-02-18T02:29:30.418Z,29.30
2018-02-18T02:30:34.487Z,29.30
2018-02-18T02:31:38.597Z,29.30
2018-02-18T02:32:42.722Z,29.30
2018-02-18T02:33:46.741Z,29.30
2018-02-18T02:34:50.771Z,29.30
2018-02-18T02:35:54.804Z,29.30
2018-02-18T02:36:58.895Z,29.30
2018-02-18T02:38:03.742Z,29.30
2018-02-18T02:39:08.531Z,29.30
2018-02-18T02:40:12.574Z,29.30
2018-02-18T02:41:17.366Z,29.60
2018-02-18T02:42:21.467Z,29.40
2018-02-18T02:43:25.495Z,29.40
2018-02-18T02:44:29.524Z,29.40
2018-02-18T02:45:33.567Z,29.40
2018-02-18T02:46:38.357Z,29.50
2018-02-18T02:47:42.450Z,29.40
2018-02-18T02:48:46.471Z,29.40
2018-02-18T02:49:50.509Z,29.40
2018-02-18T02:50:54.534Z,29.40
2018-02-18T02:51:59.342Z,29.40
2018-02-18T02:53:03.476Z,29.30
2018-02-18T02:54:07.518Z,29.30
2018-02-18T02:55:11.551Z,29.30
2018-02-18T02:56:15.575Z,29.40
2018-02-18T02:57:19.635Z,29.40
2018-02-18T02:58:24.495Z,29.30
2018-02-18T02:59:28.516Z,29.30
2018-02-18T03:00:32.545Z,29.70
2018-02-18T03:01:36.564Z,29.30
2018-02-18T03:02:40.617Z,29.30
2018-02-18T03:03:45.467Z,29.30
2018-02-18T03:04:49.487Z,29.20
2018-02-18T03:05:53.533Z,29.30
2018-02-18T03:06:57.580Z,29.30
2018-02-18T03:08:02.397Z,29.30
2018-02-18T03:09:06.473Z,29.30
2018-02-18T03:10:10.520Z,29.30
2018-02-18T03:11:14.551Z,29.20
2018-02-18T03:12:19.338Z,29.30
2018-02-18T03:13:23.376Z,29.30
2018-02-18T03:14:28.275Z,29.30
2018-02-18T03:15:32.304Z,29.30
2018-02-18T03:16:36.333Z,29.30
2018-02-18T03:17:40.411Z,29.20
2018-02-18T03:18:44.444Z,29.20
2018-02-18T03:19:48.566Z,29.30
2018-02-18T03:20:52.732Z,29.20
2018-02-18T03:21:56.748Z,29.20
2018-02-18T03:23:00.794Z,29.20
2018-02-18T03:24:04.829Z,29.20
2018-02-18T03:25:08.923Z,29.40
